Time;durP1;ratioP1;P1;durP2;ratioP2;P2;SDS_P1;SDS_P2;PMS_P1;PMS_P2;Temp;Humidity;BMP_temperature;BMP_pressure;BME280_temperature;BME280_humidity;BME280_pressure;Samples;Min_cycle;Max_cycle;Signal;HPM_P1;HPM_P2
2021/12/02 00:01:02;;;;;;;3.33;0.70;;;;;;;;;;5010154;28;20531;-69
2021/12/02 00:03:28;;;;;;;4.47;0.70;;;;;;;;;;5010178;28;20129;-69
2021/12/02 00:05:54;;;;;;;2.80;0.85;;;;;;;;;;5010179;28;20081;-69
2021/12/02 00:08:20;;;;;;;1.55;0.70;;;;;;;;;;5010105;28;20449;-69
2021/12/02 00:10:46;;;;;;;1.80;0.55;;;;;;;;;;5010043;28;20108;-69
2021/12/02 00:13:13;;;;;;;3.10;0.70;;;;;;;;;;5009234;28;20147;-69
2021/12/02 00:15:46;;;;;;;2.40;0.70;;;;;;;;;;5010364;28;20046;-69
2021/12/02 00:23:33;;;;;;;9.25;1.05;;;;;;;;;;5009789;28;20052;-69
2021/12/02 00:26:00;;;;;;;3.55;0.70;;;;;;;;;;5009770;28;20046;-69
2021/12/02 00:28:27;;;;;;;14.63;1.38;;;;;;;;;;5008717;28;20046;-70
2021/12/02 00:31:00;;;;;;;4.03;0.80;;;;;;;;;;5009248;28;20546;-69
2021/12/02 00:33:27;;;;;;;4.82;0.90;;;;;;;;;;5009393;28;20042;-69
2021/12/02 00:35:53;;;;;;;4.15;0.73;;;;;;;;;;5009480;28;20050;-70
2021/12/02 00:38:20;;;;;;;4.18;0.73;;;;;;;;;;5009269;28;20136;-70
2021/12/02 00:40:47;;;;;;;4.25;0.70;;;;;;;;;;5009644;28;20740;-71
2021/12/02 00:43:13;;;;;;;3.45;0.70;;;;;;;;;;5009341;28;20075;-70
2021/12/02 00:45:40;;;;;;;3.00;0.85;;;;;;;;;;5009462;28;20116;-70
2021/12/02 00:48:07;;;;;;;3.75;1.00;;;;;;;;;;5009871;28;20096;-71
2021/12/02 00:50:34;;;;;;;2.92;0.90;;;;;;;;;;5009988;28;20044;-70
2021/12/02 00:53:00;;;;;;;6.30;0.85;;;;;;;;;;5009564;28;20067;-71
2021/12/02 00:55:27;;;;;;;2.80;0.82;;;;;;;;;;5008461;28;20420;-70
2021/12/02 00:57:53;;;;;;;3.00;0.82;;;;;;;;;;5009035;28;20081;-69
2021/12/02 01:00:20;;;;;;;2.28;0.73;;;;;;;;;;5009491;28;20896;-69
2021/12/02 01:02:48;;;;;;;2.03;0.57;;;;;;;;;;5009718;28;20038;-69
2021/12/02 01:05:14;;;;;;;3.15;0.75;;;;;;;;;;5009036;28;20104;-68
2021/12/02 01:07:42;;;;;;;4.43;0.90;;;;;;;;;;5009113;28;20046;-69
2021/12/02 01:10:08;;;;;;;2.13;0.70;;;;;;;;;;5009418;28;20412;-69
2021/12/02 01:12:35;;;;;;;3.17;0.50;;;;;;;;;;5009131;28;20054;-71
2021/12/02 01:15:02;;;;;;;4.93;0.60;;;;;;;;;;4991900;28;20042;-69
2021/12/02 01:17:28;;;;;;;2.65;0.60;;;;;;;;;;5008884;28;20050;-68
2021/12/02 01:19:54;;;;;;;3.28;0.80;;;;;;;;;;4991865;28;20057;-70
2021/12/02 01:22:20;;;;;;;1.92;0.65;;;;;;;;;;5009441;28;20487;-69
2021/12/02 01:24:49;;;;;;;3.38;0.50;;;;;;;;;;5009455;28;20046;-70
2021/12/02 01:27:15;;;;;;;2.65;0.77;;;;;;;;;;4991480;28;20046;-69
2021/12/02 01:29:42;;;;;;;3.78;0.52;;;;;;;;;;5009445;28;20069;-68
2021/12/02 01:32:11;;;;;;;2.78;0.63;;;;;;;;;;5009263;28;20534;-69
2021/12/02 01:34:37;;;;;;;3.38;0.68;;;;;;;;;;4991873;28;20085;-69
2021/12/02 01:37:04;;;;;;;2.15;0.80;;;;;;;;;;5009216;28;20113;-69
2021/12/02 01:39:30;;;;;;;1.75;0.60;;;;;;;;;;4991077;28;20129;-68
2021/12/02 01:41:58;;;;;;;2.92;0.70;;;;;;;;;;5009204;28;20065;-69
2021/12/02 01:44:25;;;;;;;9.18;0.93;;;;;;;;;;5009189;28;20488;-68
2021/12/02 01:46:53;;;;;;;9.23;1.08;;;;;;;;;;5009259;28;20049;-69
2021/12/02 01:49:22;;;;;;;4.57;1.02;;;;;;;;;;5008500;28;20092;-68
2021/12/02 01:51:50;;;;;;;4.50;0.90;;;;;;;;;;5009022;28;20050;-70
2021/12/02 01:54:18;;;;;;;3.40;0.70;;;;;;;;;;5008928;28;20461;-69
2021/12/02 01:56:51;;;;;;;4.50;0.95;;;;;;;;;;5009085;28;20458;-69
2021/12/02 01:59:18;;;;;;;3.88;0.88;;;;;;;;;;5008947;28;20045;-70
2021/12/02 02:01:46;;;;;;;2.78;0.68;;;;;;;;;;5009187;28;20458;-69
2021/12/02 02:04:12;;;;;;;2.63;0.90;;;;;;;;;;5008403;28;20042;-69
2021/12/02 02:06:39;;;;;;;2.55;0.65;;;;;;;;;;5009181;28;20113;-69
2021/12/02 02:09:06;;;;;;;3.63;0.70;;;;;;;;;;5012572;28;20042;-70
2021/12/02 02:11:32;;;;;;;5.95;1.00;;;;;;;;;;4994568;28;20061;-70
2021/12/02 02:13:59;;;;;;;5.18;0.95;;;;;;;;;;4994672;28;20096;-70
2021/12/02 02:16:26;;;;;;;3.70;0.85;;;;;;;;;;4994680;28;20115;-70
2021/12/02 02:18:53;;;;;;;6.00;1.00;;;;;;;;;;5011532;28;20046;-70
2021/12/02 02:21:22;;;;;;;5.47;0.90;;;;;;;;;;4994559;28;20041;-70
2021/12/02 02:23:56;;;;;;;4.63;0.80;;;;;;;;;;5012342;28;20156;-71
2021/12/02 02:26:26;;;;;;;5.18;0.80;;;;;;;;;;5012403;28;20046;-70
2021/12/02 02:28:52;;;;;;;5.25;0.93;;;;;;;;;;5011969;28;20217;-71
2021/12/02 02:31:18;;;;;;;4.00;0.77;;;;;;;;;;5011750;28;20046;-70
2021/12/02 02:33:48;;;;;;;4.78;0.70;;;;;;;;;;5012099;28;20061;-69
2021/12/02 02:36:15;;;;;;;4.03;0.80;;;;;;;;;;5011485;28;20480;-69
2021/12/02 02:38:41;;;;;;;2.50;0.60;;;;;;;;;;5011809;28;20050;-70
2021/12/02 02:41:10;;;;;;;4.22;0.63;;;;;;;;;;5011868;28;20049;-69
2021/12/02 02:43:36;;;;;;;3.50;0.82;;;;;;;;;;5011384;28;20396;-70
2021/12/02 02:46:02;;;;;;;3.38;0.70;;;;;;;;;;5011676;28;20667;-70
2021/12/02 02:48:30;;;;;;;6.32;0.70;;;;;;;;;;5011858;28;20089;-70
2021/12/02 02:50:56;;;;;;;1.13;0.50;;;;;;;;;;5011927;28;20046;-70
2021/12/02 02:53:24;;;;;;;4.20;0.80;;;;;;;;;;5011443;28;20084;-70
2021/12/02 02:58:43;;;;;;;2.22;0.57;;;;;;;;;;4993765;28;20321;-69
2021/12/02 03:03:46;;;;;;;2.85;0.57;;;;;;;;;;5011590;28;20140;-69
2021/12/02 03:06:33;;;;;;;4.93;0.73;;;;;;;;;;5011210;28;20050;-69
2021/12/02 03:09:51;;;;;;;2.88;0.70;;;;;;;;;;5011351;28;20050;-70
2021/12/02 03:11:50;;;;;;;2.42;0.40;;;;;;;;;;5000040;28;20510;-70
2021/12/02 03:14:22;;;;;;;2.63;0.60;;;;;;;;;;5010922;28;20500;-70
2021/12/02 03:16:48;;;;;;;1.73;0.47;;;;;;;;;;5010946;28;20056;-70
2021/12/02 03:19:29;;;;;;;3.25;0.70;;;;;;;;;;5009953;28;20407;-69
2021/12/02 03:21:56;;;;;;;1.42;0.50;;;;;;;;;;5011149;28;20050;-70
2021/12/02 03:24:22;;;;;;;2.42;0.52;;;;;;;;;;5010706;28;20054;-70
2021/12/02 03:26:48;;;;;;;2.33;0.60;;;;;;;;;;5010784;28;20054;-70
2021/12/02 03:29:14;;;;;;;1.27;0.70;;;;;;;;;;5010906;28;20046;-70
2021/12/02 03:31:40;;;;;;;2.70;0.70;;;;;;;;;;5010538;28;20042;-69
2021/12/02 03:34:07;;;;;;;3.33;0.70;;;;;;;;;;5011279;28;20549;-70
2021/12/02 03:36:34;;;;;;;3.00;0.57;;;;;;;;;;5010981;28;20096;-71
2021/12/02 03:39:00;;;;;;;3.47;0.52;;;;;;;;;;5010832;28;20088;-71
2021/12/02 03:41:26;;;;;;;3.50;0.80;;;;;;;;;;5010703;28;20132;-71
2021/12/02 03:43:52;;;;;;;1.73;0.55;;;;;;;;;;5010343;28;20526;-70
2021/12/02 03:46:20;;;;;;;2.40;0.60;;;;;;;;;;5010613;28;20046;-70
2021/12/02 03:48:46;;;;;;;1.25;0.35;;;;;;;;;;5010762;28;20534;-69
2021/12/02 03:51:12;;;;;;;1.75;0.40;;;;;;;;;;5010693;28;20050;-69
2021/12/02 03:53:39;;;;;;;5.40;0.75;;;;;;;;;;4993189;28;20388;-69
2021/12/02 03:56:08;;;;;;;1.58;0.60;;;;;;;;;;5010431;28;20057;-69
2021/12/02 03:58:38;;;;;;;3.35;0.75;;;;;;;;;;5010226;28;20462;-68
2021/12/02 04:01:05;;;;;;;3.00;0.90;;;;;;;;;;5010502;28;20046;-69
2021/12/02 04:03:31;;;;;;;2.00;0.68;;;;;;;;;;5009615;28;20491;-69
2021/12/02 04:05:58;;;;;;;1.92;0.60;;;;;;;;;;5010166;28;20041;-69
2021/12/02 04:08:30;;;;;;;2.33;0.50;;;;;;;;;;5010405;28;20056;-69
2021/12/02 04:11:11;;;;;;;3.25;0.60;;;;;;;;;;4992809;28;20038;-69
2021/12/02 04:13:42;;;;;;;1.60;0.40;;;;;;;;;;4971069;28;20052;-69
2021/12/02 04:16:14;;;;;;;1.48;0.50;;;;;;;;;;4971082;28;20050;-69
2021/12/02 04:18:40;;;;;;;1.75;0.55;;;;;;;;;;4971119;28;20050;-69
2021/12/02 04:21:06;;;;;;;2.00;0.50;;;;;;;;;;4969387;28;20045;-69
2021/12/02 04:23:32;;;;;;;1.45;0.43;;;;;;;;;;4971092;28;20136;-69
2021/12/02 04:25:58;;;;;;;1.70;0.40;;;;;;;;;;4970841;28;20129;-70
2021/12/02 04:28:24;;;;;;;1.60;0.57;;;;;;;;;;4970890;28;20441;-69
2021/12/02 04:30:50;;;;;;;2.08;0.55;;;;;;;;;;4970774;28;20042;-70
2021/12/02 04:33:16;;;;;;;1.65;0.40;;;;;;;;;;4953233;28;20595;-68
2021/12/02 04:35:43;;;;;;;1.67;0.55;;;;;;;;;;4970777;28;20468;-69
2021/12/02 04:38:09;;;;;;;2.83;0.60;;;;;;;;;;4970864;28;20051;-69
2021/12/02 04:40:36;;;;;;;0.95;0.55;;;;;;;;;;4970955;28;20470;-70
2021/12/02 04:43:03;;;;;;;1.23;0.55;;;;;;;;;;4970676;28;20050;-70
2021/12/02 04:45:29;;;;;;;2.20;0.60;;;;;;;;;;4970501;28;20102;-69
2021/12/02 04:47:55;;;;;;;0.68;0.28;;;;;;;;;;4970334;28;20129;-69
2021/12/02 04:50:21;;;;;;;2.83;0.73;;;;;;;;;;4970454;28;20054;-69
2021/12/02 04:52:49;;;;;;;1.38;0.30;;;;;;;;;;4970687;28;20051;-69
2021/12/02 04:55:18;;;;;;;1.65;0.50;;;;;;;;;;4970738;28;20043;-70
2021/12/02 04:57:44;;;;;;;1.55;0.50;;;;;;;;;;4970894;28;20402;-70
2021/12/02 05:00:11;;;;;;;1.85;0.40;;;;;;;;;;4970658;28;20417;-69
2021/12/02 05:02:37;;;;;;;0.73;0.30;;;;;;;;;;4969860;28;20484;-68
2021/12/02 05:05:03;;;;;;;1.95;0.40;;;;;;;;;;4970490;28;20051;-71
2021/12/02 05:07:29;;;;;;;2.20;0.50;;;;;;;;;;4970482;28;20420;-69
2021/12/02 05:09:55;;;;;;;7.60;0.70;;;;;;;;;;4970599;28;20046;-69
2021/12/02 05:12:21;;;;;;;1.60;0.32;;;;;;;;;;4978490;28;20054;-69
2021/12/02 05:14:47;;;;;;;2.35;0.43;;;;;;;;;;4989902;28;20137;-69
2021/12/02 05:17:13;;;;;;;1.33;0.30;;;;;;;;;;4989038;28;20500;-70
2021/12/02 05:19:39;;;;;;;2.08;0.40;;;;;;;;;;4989810;28;20534;-70
2021/12/02 05:22:05;;;;;;;5.55;0.50;;;;;;;;;;4989792;28;20473;-71
2021/12/02 05:24:31;;;;;;;2.55;0.30;;;;;;;;;;4989541;28;20053;-70
2021/12/02 05:26:57;;;;;;;1.75;0.50;;;;;;;;;;4989525;28;20423;-71
2021/12/02 05:29:23;;;;;;;5.07;0.30;;;;;;;;;;4989451;28;20057;-70
2021/12/02 05:31:50;;;;;;;6.38;0.55;;;;;;;;;;4989829;28;20102;-70
2021/12/02 05:34:16;;;;;;;3.38;0.65;;;;;;;;;;4989503;28;20043;-69
2021/12/02 05:36:42;;;;;;;2.40;0.38;;;;;;;;;;4989139;28;20111;-69
2021/12/02 05:39:08;;;;;;;2.03;0.52;;;;;;;;;;4989478;28;20109;-70
2021/12/02 05:41:34;;;;;;;1.90;0.50;;;;;;;;;;4989618;28;20038;-69
2021/12/02 05:44:00;;;;;;;1.70;0.40;;;;;;;;;;4993295;28;20485;-70
2021/12/02 05:46:26;;;;;;;0.75;0.28;;;;;;;;;;4993266;28;20065;-71
2021/12/02 05:48:52;;;;;;;2.17;0.30;;;;;;;;;;4993217;28;20042;-70
2021/12/02 05:51:18;;;;;;;4.10;0.50;;;;;;;;;;4992762;28;20484;-70
2021/12/02 05:53:44;;;;;;;1.95;0.68;;;;;;;;;;4993112;28;20492;-71
2021/12/02 05:56:10;;;;;;;1.85;0.30;;;;;;;;;;4993028;28;20441;-70
2021/12/02 05:58:37;;;;;;;1.17;0.30;;;;;;;;;;4993353;28;20042;-70
2021/12/02 06:01:03;;;;;;;2.90;0.52;;;;;;;;;;4991804;28;20058;-70
2021/12/02 06:03:30;;;;;;;0.75;0.30;;;;;;;;;;4992800;28;20073;-70
2021/12/02 06:05:56;;;;;;;1.45;0.40;;;;;;;;;;4992359;28;20132;-70
2021/12/02 06:08:23;;;;;;;5.10;0.80;;;;;;;;;;4976852;28;20039;-71
2021/12/02 06:10:49;;;;;;;3.13;0.32;;;;;;;;;;4988552;28;20113;-71
2021/12/02 06:13:16;;;;;;;0.70;0.35;;;;;;;;;;5007969;28;20065;-71
2021/12/02 06:15:42;;;;;;;0.63;0.30;;;;;;;;;;5011771;28;20081;-71
2021/12/02 06:18:08;;;;;;;1.13;0.30;;;;;;;;;;5011442;28;20499;-71
2021/12/02 06:20:35;;;;;;;1.88;0.43;;;;;;;;;;5011652;28;20129;-71
2021/12/02 06:23:01;;;;;;;0.73;0.28;;;;;;;;;;4993578;28;20050;-71
2021/12/02 06:27:54;;;;;;;1.23;0.50;;;;;;;;;;5011381;28;20045;-72
2021/12/02 06:30:22;;;;;;;1.00;0.30;;;;;;;;;;5011259;28;20045;-72
2021/12/02 06:32:48;;;;;;;1.17;0.40;;;;;;;;;;4993521;28;20045;-71
2021/12/02 06:35:15;;;;;;;0.73;0.30;;;;;;;;;;5011423;28;20041;-71
2021/12/02 06:37:41;;;;;;;2.05;0.68;;;;;;;;;;5011535;28;20052;-71
2021/12/02 06:40:07;;;;;;;0.98;0.38;;;;;;;;;;5011146;28;20056;-70
2021/12/02 06:42:34;;;;;;;1.17;0.40;;;;;;;;;;5011774;28;20049;-71
2021/12/02 06:45:00;;;;;;;3.10;0.50;;;;;;;;;;5012125;28;20060;-71
2021/12/02 06:47:38;;;;;;;2.35;0.40;;;;;;;;;;4994153;28;20050;-72
2021/12/02 06:50:05;;;;;;;0.90;0.35;;;;;;;;;;5011929;28;20397;-70
2021/12/02 06:52:32;;;;;;;1.10;0.35;;;;;;;;;;5011730;28;20058;-72
2021/12/02 06:54:58;;;;;;;2.08;0.40;;;;;;;;;;5011299;28;20424;-71
2021/12/02 06:57:24;;;;;;;1.23;0.20;;;;;;;;;;5011296;28;20081;-70
2021/12/02 06:59:50;;;;;;;1.67;0.40;;;;;;;;;;5011475;28;20042;-71
2021/12/02 07:02:18;;;;;;;0.57;0.22;;;;;;;;;;4993810;28;20054;-70
2021/12/02 07:04:44;;;;;;;3.10;1.13;;;;;;;;;;4993905;28;20058;-70
2021/12/02 07:07:11;;;;;;;1.00;0.40;;;;;;;;;;5011578;28;20450;-70
2021/12/02 07:09:37;;;;;;;0.88;0.40;;;;;;;;;;5011630;28;20088;-72
2021/12/02 07:12:03;;;;;;;1.38;0.43;;;;;;;;;;4992971;28;20215;-70
2021/12/02 07:14:29;;;;;;;6.00;0.30;;;;;;;;;;5010599;28;20041;-70
2021/12/02 07:16:57;;;;;;;7.10;0.52;;;;;;;;;;5010604;28;20411;-69
2021/12/02 07:19:24;;;;;;;3.30;0.40;;;;;;;;;;5010049;28;20089;-70
2021/12/02 07:21:50;;;;;;;2.50;0.52;;;;;;;;;;5010396;28;20050;-69
2021/12/02 07:24:16;;;;;;;1.75;0.40;;;;;;;;;;5010447;28;20471;-69
2021/12/02 07:26:43;;;;;;;2.20;0.47;;;;;;;;;;5010268;28;20078;-69
2021/12/02 07:29:13;;;;;;;1.92;0.55;;;;;;;;;;5010354;28;20041;-69
2021/12/02 07:31:40;;;;;;;1.55;0.50;;;;;;;;;;5010488;28;21150;-70
2021/12/02 07:34:07;;;;;;;0.93;0.20;;;;;;;;;;5009556;28;20030;-68
2021/12/02 07:36:34;;;;;;;2.28;0.40;;;;;;;;;;5010139;28;20052;-69
2021/12/02 07:39:09;;;;;;;3.05;0.70;;;;;;;;;;5010136;28;20128;-68
2021/12/02 07:41:36;;;;;;;2.00;0.32;;;;;;;;;;5010271;28;20100;-69
2021/12/02 07:44:02;;;;;;;1.35;0.40;;;;;;;;;;5010172;28;20050;-68
2021/12/02 07:46:28;;;;;;;4.68;0.45;;;;;;;;;;5010571;28;20054;-71
2021/12/02 07:48:55;;;;;;;7.18;0.50;;;;;;;;;;5010892;28;20045;-70
2021/12/02 07:51:22;;;;;;;6.03;0.47;;;;;;;;;;5010178;28;20419;-70
2021/12/02 07:53:49;;;;;;;4.95;0.77;;;;;;;;;;5010969;28;20041;-69
2021/12/02 07:56:16;;;;;;;8.02;0.98;;;;;;;;;;5010769;28;20046;-70
2021/12/02 07:58:44;;;;;;;7.50;0.90;;;;;;;;;;5010592;28;20049;-68
2021/12/02 08:01:11;;;;;;;5.97;0.57;;;;;;;;;;5010195;28;20041;-70
2021/12/02 08:03:43;;;;;;;1.42;0.50;;;;;;;;;;5010358;28;20045;-70
2021/12/02 08:06:11;;;;;;;6.13;0.88;;;;;;;;;;5010425;28;20050;-69
2021/12/02 08:08:37;;;;;;;3.58;0.60;;;;;;;;;;4967384;28;20058;-69
2021/12/02 08:11:03;;;;;;;2.65;0.50;;;;;;;;;;4976257;28;20535;-71
2021/12/02 08:13:30;;;;;;;4.90;0.80;;;;;;;;;;4983784;28;20097;-70
2021/12/02 08:15:56;;;;;;;4.38;1.13;;;;;;;;;;4999546;28;20490;-70
2021/12/02 08:18:23;;;;;;;4.38;0.55;;;;;;;;;;4986623;28;20049;-70
2021/12/02 08:20:49;;;;;;;6.20;0.50;;;;;;;;;;4980274;28;20046;-70
2021/12/02 08:23:15;;;;;;;1.35;0.40;;;;;;;;;;4971960;28;20047;-70
2021/12/02 08:25:41;;;;;;;1.00;0.20;;;;;;;;;;4977718;28;20050;-70
2021/12/02 08:28:07;;;;;;;4.90;1.05;;;;;;;;;;4989265;28;20507;-71
2021/12/02 08:30:35;;;;;;;5.70;0.50;;;;;;;;;;4972850;28;20416;-71
2021/12/02 08:33:02;;;;;;;2.83;0.52;;;;;;;;;;4990269;28;20046;-71
2021/12/02 08:35:28;;;;;;;1.48;0.43;;;;;;;;;;4976313;28;20382;-70
2021/12/02 08:38:00;;;;;;;3.47;0.70;;;;;;;;;;4970982;28;20055;-70
2021/12/02 08:40:34;;;;;;;1.45;0.40;;;;;;;;;;4970923;28;20413;-71
2021/12/02 08:43:01;;;;;;;3.03;0.80;;;;;;;;;;4970252;28;20090;-69
2021/12/02 08:45:28;;;;;;;1.13;0.40;;;;;;;;;;4970788;28;20050;-69
2021/12/02 08:47:54;;;;;;;1.77;0.45;;;;;;;;;;4970979;28;20038;-70
2021/12/02 08:50:22;;;;;;;1.15;0.30;;;;;;;;;;4970751;28;20054;-70
2021/12/02 08:52:49;;;;;;;1.88;0.30;;;;;;;;;;4970235;28;20042;-69
2021/12/02 08:55:16;;;;;;;2.55;0.40;;;;;;;;;;4970854;28;20043;-70
2021/12/02 08:57:42;;;;;;;1.90;0.45;;;;;;;;;;4970841;28;20057;-71
2021/12/02 09:00:09;;;;;;;2.08;0.55;;;;;;;;;;4953092;28;20057;-70
2021/12/02 09:02:35;;;;;;;1.35;0.50;;;;;;;;;;4973147;28;20039;-70
2021/12/02 09:05:02;;;;;;;1.30;0.35;;;;;;;;;;4989815;28;20053;-70
2021/12/02 09:07:28;;;;;;;1.58;0.50;;;;;;;;;;4990110;28;20073;-70
2021/12/02 09:09:54;;;;;;;3.00;0.70;;;;;;;;;;4983956;28;20059;-70
2021/12/02 09:12:20;;;;;;;2.53;0.50;;;;;;;;;;4979311;28;20118;-70
2021/12/02 09:14:46;;;;;;;0.70;0.40;;;;;;;;;;4975229;28;20060;-70
2021/12/02 09:17:12;;;;;;;1.38;0.75;;;;;;;;;;4979989;28;20039;-71
2021/12/02 09:19:38;;;;;;;0.93;0.55;;;;;;;;;;4979948;28;20043;-70
2021/12/02 09:22:04;;;;;;;2.50;0.40;;;;;;;;;;4986214;28;20050;-70
2021/12/02 09:24:30;;;;;;;2.67;0.47;;;;;;;;;;4989184;28;20148;-70
2021/12/02 09:26:56;;;;;;;1.25;0.57;;;;;;;;;;4981940;28;20150;-70
2021/12/02 09:29:23;;;;;;;2.78;0.50;;;;;;;;;;4964560;28;20517;-70
2021/12/02 09:31:50;;;;;;;2.90;0.75;;;;;;;;;;4964280;28;20042;-70
2021/12/02 09:34:16;;;;;;;2.28;0.70;;;;;;;;;;4982387;28;20042;-70
2021/12/02 09:36:43;;;;;;;2.80;0.50;;;;;;;;;;4983118;28;20508;-70
2021/12/02 09:39:10;;;;;;;15.52;2.20;;;;;;;;;;4980008;28;20097;-70
2021/12/02 09:41:36;;;;;;;15.18;1.35;;;;;;;;;;4984048;28;20045;-72
2021/12/02 09:44:03;;;;;;;1.83;0.60;;;;;;;;;;4983411;28;20042;-70
2021/12/02 09:46:29;;;;;;;3.15;0.82;;;;;;;;;;4979551;28;20054;-71
2021/12/02 09:48:56;;;;;;;4.05;0.60;;;;;;;;;;4966926;28;20137;-74
2021/12/02 09:51:26;;;;;;;1.55;0.50;;;;;;;;;;4986557;28;20057;-72
2021/12/02 09:53:55;;;;;;;2.53;0.55;;;;;;;;;;4978951;28;20043;-71
2021/12/02 09:56:27;;;;;;;3.25;0.43;;;;;;;;;;4984585;28;20078;-71
2021/12/02 09:58:57;;;;;;;2.78;0.60;;;;;;;;;;4982794;28;20443;-71
2021/12/02 10:01:36;;;;;;;;;;;;;;;;;;4982108;28;20445;-70
2021/12/02 10:04:04;;;;;;;1.73;0.40;;;;;;;;;;4983208;28;20355;-70
2021/12/02 10:06:32;;;;;;;2.03;0.40;;;;;;;;;;4985008;28;20046;-69
2021/12/02 10:09:12;;;;;;;25.30;0.80;;;;;;;;;;4974804;28;20054;-70
2021/12/02 10:11:45;;;;;;;3.03;0.40;;;;;;;;;;4978340;28;20501;-69
2021/12/02 10:14:19;;;;;;;2.22;0.55;;;;;;;;;;4978271;28;20038;-70
2021/12/02 10:16:47;;;;;;;2.58;0.40;;;;;;;;;;4980517;28;20654;-69
2021/12/02 10:19:26;;;;;;;1.50;0.43;;;;;;;;;;4984194;28;20469;-70
2021/12/02 10:22:01;;;;;;;3.72;0.60;;;;;;;;;;4976048;28;20504;-70
2021/12/02 10:24:29;;;;;;;1.52;0.52;;;;;;;;;;4979309;28;20051;-69
2021/12/02 10:27:15;;;;;;;5.13;0.60;;;;;;;;;;4979191;28;20128;-70
2021/12/02 10:29:46;;;;;;;2.13;0.65;;;;;;;;;;4977408;28;20085;-69
2021/12/02 10:32:16;;;;;;;1.73;0.40;;;;;;;;;;4978688;28;20325;-69
2021/12/02 10:34:41;;;;;;;;;;;;;;;;;;4978168;28;20124;-69
2021/12/02 10:37:11;;;;;;;0.85;0.40;;;;;;;;;;4981190;28;19930;-69
2021/12/02 10:39:37;;;;;;;1.58;0.60;;;;;;;;;;4981261;28;20050;-69
2021/12/02 10:42:05;;;;;;;2.40;0.50;;;;;;;;;;4980575;28;20078;-69
2021/12/02 10:44:35;;;;;;;1.15;0.40;;;;;;;;;;4977783;28;20504;-69
2021/12/02 10:47:09;;;;;;;4.32;0.52;;;;;;;;;;4985349;28;20046;-70
2021/12/02 10:49:55;;;;;;;2.85;0.47;;;;;;;;;;4979374;28;20042;-69
2021/12/02 10:52:26;;;;;;;2.58;0.40;;;;;;;;;;4984193;28;20526;-67
2021/12/02 10:54:58;;;;;;;0.90;0.50;;;;;;;;;;4986018;28;20055;-67
2021/12/02 10:57:26;;;;;;;1.20;0.50;;;;;;;;;;4985221;28;20081;-69
2021/12/02 10:59:52;;;;;;;1.85;0.45;;;;;;;;;;4976692;28;20092;-68
2021/12/02 11:02:23;;;;;;;4.30;0.40;;;;;;;;;;4988355;28;20046;-68
2021/12/02 11:04:51;;;;;;;1.85;0.45;;;;;;;;;;4982235;28;20046;-70
2021/12/02 11:07:21;;;;;;;1.52;0.40;;;;;;;;;;4986592;28;20417;-68
2021/12/02 11:09:49;;;;;;;1.63;0.55;;;;;;;;;;4980275;28;20551;-70
2021/12/02 11:12:17;;;;;;;1.13;0.40;;;;;;;;;;4981503;28;20062;-71
2021/12/02 11:14:51;;;;;;;1.08;0.30;;;;;;;;;;4982280;28;20096;-69
2021/12/02 11:17:17;;;;;;;1.50;0.43;;;;;;;;;;4980758;28;20054;-70
2021/12/02 11:19:47;;;;;;;0.93;0.40;;;;;;;;;;4979983;28;20042;-70
2021/12/02 11:22:15;;;;;;;0.80;0.43;;;;;;;;;;4962892;28;20486;-69
2021/12/02 11:24:41;;;;;;;1.55;0.40;;;;;;;;;;4974989;28;20043;-68
2021/12/02 11:27:31;;;;;;;1.83;0.40;;;;;;;;;;4980088;28;20046;-68
2021/12/02 11:30:00;;;;;;;2.55;0.30;;;;;;;;;;4972847;28;20467;-70
2021/12/02 11:32:28;;;;;;;1.60;0.22;;;;;;;;;;4976360;28;20043;-71
2021/12/02 11:35:20;;;;;;;0.73;0.45;;;;;;;;;;4976940;28;20689;-70
2021/12/02 11:37:51;;;;;;;5.57;0.40;;;;;;;;;;4979697;28;20062;-70
2021/12/02 11:40:23;;;;;;;1.55;0.32;;;;;;;;;;4973855;28;20049;-70
2021/12/02 11:42:50;;;;;;;1.15;0.30;;;;;;;;;;4977156;28;20046;-70
2021/12/02 11:45:18;;;;;;;2.05;0.30;;;;;;;;;;4980382;28;20043;-70
2021/12/02 11:47:44;;;;;;;0.90;0.35;;;;;;;;;;4982802;28;20044;-70
2021/12/02 11:50:11;;;;;;;1.80;0.45;;;;;;;;;;4978289;28;20113;-70
2021/12/02 11:52:39;;;;;;;0.75;0.25;;;;;;;;;;4976898;28;20038;-70
2021/12/02 11:55:17;;;;;;;1.52;0.40;;;;;;;;;;4984332;28;20141;-69
2021/12/02 11:57:43;;;;;;;0.77;0.30;;;;;;;;;;4979321;28;20082;-69
2021/12/02 12:00:11;;;;;;;0.47;0.30;;;;;;;;;;4977895;28;20053;-70
2021/12/02 12:02:38;;;;;;;2.03;0.35;;;;;;;;;;4976977;28;20077;-70
2021/12/02 12:05:05;;;;;;;1.17;0.30;;;;;;;;;;4974647;28;20410;-70
2021/12/02 12:07:39;;;;;;;0.90;0.30;;;;;;;;;;4963251;28;20047;-70
2021/12/02 12:10:14;;;;;;;0.70;0.35;;;;;;;;;;4976716;28;20552;-70
2021/12/02 12:12:43;;;;;;;2.80;0.50;;;;;;;;;;4977284;28;20050;-71
2021/12/02 12:15:29;;;;;;;0.98;0.30;;;;;;;;;;4982040;28;20055;-70
2021/12/02 12:17:55;;;;;;;1.20;0.47;;;;;;;;;;4962408;28;20138;-70
2021/12/02 12:20:21;;;;;;;0.40;0.30;;;;;;;;;;4976168;28;20462;-69
2021/12/02 12:22:47;;;;;;;0.68;0.30;;;;;;;;;;4968932;28;20046;-70
2021/12/02 12:25:29;;;;;;;2.40;0.40;;;;;;;;;;4964796;28;20059;-73
2021/12/02 12:28:00;;;;;;;2.03;0.43;;;;;;;;;;4981790;28;20056;-71
2021/12/02 12:30:36;;;;;;;2.78;0.60;;;;;;;;;;4976797;28;20046;-71
2021/12/02 12:33:07;;;;;;;3.53;0.70;;;;;;;;;;4976981;28;20038;-71
2021/12/02 12:38:21;;;;;;;4.45;1.27;;;;;;;;;;4973282;28;20094;-70
2021/12/02 12:40:49;;;;;;;4.55;0.85;;;;;;;;;;4980091;28;20043;-71
2021/12/02 12:43:16;;;;;;;6.13;1.40;;;;;;;;;;4983593;28;20046;-70
2021/12/02 12:45:43;;;;;;;7.18;1.50;;;;;;;;;;4978602;28;20125;-71
2021/12/02 12:48:11;;;;;;;4.00;1.00;;;;;;;;;;4954729;28;20133;-71
2021/12/02 12:50:41;;;;;;;3.20;1.15;;;;;;;;;;4976267;28;20505;-70
2021/12/02 12:53:09;;;;;;;5.25;1.08;;;;;;;;;;4977800;28;20048;-71
2021/12/02 12:55:36;;;;;;;5.10;1.52;;;;;;;;;;4964216;28;20042;-72
2021/12/02 12:58:15;;;;;;;6.25;1.55;;;;;;;;;;4977445;28;20050;-71
2021/12/02 13:00:46;;;;;;;6.40;1.23;;;;;;;;;;4972118;28;20043;-72
2021/12/02 13:03:26;;;;;;;5.85;1.30;;;;;;;;;;4979091;28;20145;-70
2021/12/02 13:05:58;;;;;;;4.28;0.90;;;;;;;;;;4974523;28;20077;-70
2021/12/02 13:08:26;;;;;;;4.93;1.13;;;;;;;;;;4978261;28;20133;-69
2021/12/02 13:10:52;;;;;;;4.95;1.05;;;;;;;;;;4975536;28;20105;-69
2021/12/02 13:13:22;;;;;;;4.68;1.02;;;;;;;;;;4975660;28;20101;-71
2021/12/02 13:15:48;;;;;;;4.15;0.90;;;;;;;;;;4978796;28;20082;-70
2021/12/02 13:18:33;;;;;;;3.67;0.98;;;;;;;;;;4978288;28;20050;-71
2021/12/02 13:21:20;;;;;;;3.58;0.98;;;;;;;;;;4979267;28;20057;-70
2021/12/02 13:23:55;;;;;;;3.58;0.98;;;;;;;;;;4968937;28;20051;-71
2021/12/02 13:26:23;;;;;;;3.55;0.90;;;;;;;;;;4979095;28;20497;-69
2021/12/02 13:28:49;;;;;;;2.13;0.85;;;;;;;;;;4982127;28;20512;-71
2021/12/02 13:31:16;;;;;;;5.13;1.20;;;;;;;;;;4984627;28;20514;-69
2021/12/02 13:33:46;;;;;;;4.13;0.88;;;;;;;;;;4977142;28;20057;-69
2021/12/02 13:36:13;;;;;;;4.63;1.10;;;;;;;;;;4976350;28;20057;-69
2021/12/02 13:38:40;;;;;;;3.85;0.80;;;;;;;;;;4977664;28;20405;-70
2021/12/02 13:41:10;;;;;;;3.63;0.82;;;;;;;;;;4985220;28;20417;-70
2021/12/02 13:43:50;;;;;;;3.40;0.95;;;;;;;;;;4975576;28;20055;-70
2021/12/02 13:46:17;;;;;;;3.15;0.90;;;;;;;;;;4982420;28;20054;-70
2021/12/02 13:48:56;;;;;;;3.60;0.80;;;;;;;;;;4980827;28;20045;-69
2021/12/02 13:54:24;;;;;;;2.33;0.90;;;;;;;;;;4972810;28;20480;-68
2021/12/02 13:56:50;;;;;;;2.28;0.70;;;;;;;;;;4963423;28;20055;-70
2021/12/02 13:59:21;;;;;;;2.55;0.70;;;;;;;;;;4977329;28;20873;-71
2021/12/02 14:01:55;;;;;;;1.63;0.70;;;;;;;;;;4980893;28;20042;-70
2021/12/02 14:04:22;;;;;;;1.73;0.68;;;;;;;;;;4984848;28;20050;-72
2021/12/02 14:06:48;;;;;;;1.95;0.93;;;;;;;;;;4957087;28;20047;-69
2021/12/02 14:09:18;;;;;;;4.07;0.80;;;;;;;;;;4985155;28;20043;-69
2021/12/02 14:11:45;;;;;;;3.88;0.82;;;;;;;;;;4981984;28;20051;-72
2021/12/02 14:14:20;;;;;;;1.15;0.57;;;;;;;;;;4978084;28;20057;-72
2021/12/02 14:16:46;;;;;;;3.88;0.70;;;;;;;;;;4986805;28;20039;-70
2021/12/02 14:19:13;;;;;;;2.60;0.60;;;;;;;;;;4988668;28;20500;-70
2021/12/02 14:21:39;;;;;;;2.50;0.70;;;;;;;;;;4964313;28;20046;-69
2021/12/02 14:24:05;;;;;;;2.88;0.80;;;;;;;;;;4988355;28;20096;-69
2021/12/02 14:26:31;;;;;;;1.33;0.50;;;;;;;;;;4984412;28;20126;-70
2021/12/02 14:28:59;;;;;;;1.95;0.70;;;;;;;;;;4985403;28;20471;-70
2021/12/02 14:31:31;;;;;;;2.35;0.70;;;;;;;;;;4989238;28;20065;-69
2021/12/02 14:33:58;;;;;;;2.22;0.60;;;;;;;;;;4976110;28;20117;-69
2021/12/02 14:36:26;;;;;;;2.38;0.68;;;;;;;;;;4973744;28;20409;-69
2021/12/02 14:38:58;;;;;;;1.23;0.40;;;;;;;;;;4956151;28;20149;-71
2021/12/02 14:41:29;;;;;;;2.53;0.70;;;;;;;;;;4973429;28;20058;-71
2021/12/02 14:43:59;;;;;;;1.90;0.55;;;;;;;;;;4973201;28;20050;-70
2021/12/02 14:46:26;;;;;;;5.93;0.88;;;;;;;;;;4972417;28;20448;-70
2021/12/02 14:49:12;;;;;;;7.03;0.60;;;;;;;;;;4973015;28;20057;-71
2021/12/02 14:51:44;;;;;;;1.90;0.45;;;;;;;;;;4973393;28;20042;-70
2021/12/02 14:54:11;;;;;;;3.20;0.70;;;;;;;;;;4989650;28;20038;-70
2021/12/02 14:56:40;;;;;;;6.63;0.80;;;;;;;;;;4991502;28;20467;-70
2021/12/02 14:59:08;;;;;;;4.28;1.05;;;;;;;;;;4989456;28;20100;-72
2021/12/02 15:01:34;;;;;;;1.45;0.52;;;;;;;;;;4992254;28;20042;-71
2021/12/02 15:04:27;;;;;;;4.15;1.00;;;;;;;;;;4988810;28;20559;-72
2021/12/02 15:06:53;;;;;;;1.90;0.68;;;;;;;;;;4971092;28;20093;-73
2021/12/02 15:09:39;;;;;;;2.45;0.52;;;;;;;;;;4973635;28;20059;-72